createdAt,value
2018-12-19T00:01:17.293Z,98850.80
2018-12-19T00:03:25.440Z,98849.27
2018-12-19T00:05:33.230Z,98845.17
2018-12-19T00:07:41.666Z,98848.17
2018-12-19T00:09:50.693Z,98854.84
2018-12-19T00:11:59.995Z,98850.86
2018-12-19T00:14:07.150Z,98854.05
2018-12-19T00:16:14.922Z,98851.45
2018-12-19T00:18:26.123Z,98849.06
2018-12-19T00:20:45.557Z,98842.07
2018-12-19T00:22:57.983Z,98832.87
2018-12-19T00:25:06.497Z,98820.17
2018-12-19T00:27:13.956Z,98809.38
2018-12-19T00:29:20.908Z,98805.00
2018-12-19T00:31:28.803Z,98793.50
2018-12-19T00:33:37.554Z,98790.25
2018-12-19T00:35:46.622Z,98798.40
2018-12-19T00:37:59.035Z,98798.22
2018-12-19T00:44:32.455Z,98788.67
2018-12-19T00:49:05.051Z,98790.70
2018-12-19T00:51:16.043Z,98790.47
2018-12-19T00:53:23.390Z,98783.06
2018-12-19T00:55:30.176Z,98788.41
2018-12-19T00:59:51.893Z,98779.17
2018-12-19T01:02:07.988Z,98779.73
2018-12-19T01:04:15.365Z,98778.45
2018-12-19T01:06:23.114Z,98768.20
2018-12-19T01:08:34.316Z,98766.00
2018-12-19T01:13:08.555Z,98767.06
2018-12-19T01:15:16.230Z,98767.23
2018-12-19T01:17:23.834Z,98773.66
2018-12-19T01:19:31.728Z,98768.70
2018-12-19T01:23:51.600Z,98754.05
2018-12-19T01:26:03.355Z,98765.94
2018-12-19T01:32:40.042Z,98763.52
2018-12-19T01:34:49.174Z,98761.41
2018-12-19T01:36:57.648Z,98759.81
2018-12-19T01:39:05.996Z,98751.09
2018-12-19T01:41:22.353Z,98752.31
2018-12-19T01:45:48.312Z,98747.56
2018-12-19T01:47:56.984Z,98737.72
2018-12-19T01:54:55.089Z,98732.58
2018-12-19T01:59:16.754Z,98739.34
2018-12-19T02:03:45.739Z,98741.02
2018-12-19T02:05:56.259Z,98738.30
2018-12-19T02:12:35.624Z,98733.70
2018-12-19T02:14:44.147Z,98731.28
2018-12-19T02:16:54.330Z,98732.63
2018-12-19T02:19:04.996Z,98730.75
2018-12-19T02:21:13.821Z,98735.30
2018-12-19T02:23:25.712Z,98729.34
2018-12-19T02:27:48.657Z,98722.38
2018-12-19T02:29:57.443Z,98729.16
2018-12-19T02:32:12.039Z,98732.34
2018-12-19T02:34:20.947Z,98736.95
2018-12-19T02:36:28.552Z,98740.42
2018-12-19T02:40:48.698Z,98738.95
2018-12-19T02:42:58.347Z,98725.80
2018-12-19T02:45:06.461Z,98724.45
2018-12-19T02:47:15.879Z,98720.49
2018-12-19T02:49:24.396Z,98718.61
2018-12-19T02:51:35.848Z,98710.64
2018-12-19T02:53:43.431Z,98716.12
2018-12-19T02:58:11.663Z,98716.72
2018-12-19T03:00:20.047Z,98727.66
2018-12-19T03:02:33.667Z,98712.89
2018-12-19T03:04:42.374Z,98718.78
2018-12-19T03:06:51.976Z,98724.27
2018-12-19T03:11:13.969Z,98712.85
2018-12-19T03:15:34.595Z,98693.42
2018-12-19T03:17:43.116Z,98688.23
2018-12-19T03:19:54.493Z,98681.45
2018-12-19T03:22:03.863Z,98676.64
2018-12-19T03:24:12.928Z,98668.79
2018-12-19T03:26:20.298Z,98674.67
2018-12-19T03:30:39.776Z,98665.52
2018-12-19T03:35:00.486Z,98659.93
2018-12-19T03:37:10.506Z,98654.67
2018-12-19T03:39:22.260Z,98654.23
2018-12-19T03:41:32.722Z,98665.41
2018-12-19T03:43:41.270Z,98660.23
2018-12-19T03:45:49.627Z,98653.23
2018-12-19T03:47:56.954Z,98653.83
2018-12-19T03:50:07.213Z,98658.65
2018-12-19T03:52:14.133Z,98662.72
2018-12-19T03:54:21.024Z,98655.86
2018-12-19T03:56:27.926Z,98656.75
2018-12-19T03:58:35.195Z,98673.60
2018-12-19T04:00:42.250Z,98655.39
2018-12-19T04:02:49.373Z,98661.47
2018-12-19T04:04:56.341Z,98649.50
2018-12-19T04:07:03.034Z,98648.30
2018-12-19T04:09:10.499Z,98639.63
2018-12-19T04:11:17.366Z,98641.34
2018-12-19T04:13:24.462Z,98631.84
2018-12-19T04:15:31.381Z,98628.41
2018-12-19T04:17:38.075Z,98620.81
2018-12-19T04:19:45.105Z,98635.70
2018-12-19T04:21:52.026Z,98637.06
2018-12-19T04:23:59.140Z,98645.04
2018-12-19T04:26:05.989Z,98640.04
2018-12-19T04:28:12.768Z,98634.32
2018-12-19T04:30:19.780Z,98635.11
2018-12-19T04:32:27.095Z,98622.92
2018-12-19T04:34:33.987Z,98599.59
2018-12-19T04:36:40.888Z,98603.36
2018-12-19T04:38:48.052Z,98620.28
2018-12-19T04:40:54.990Z,98609.84
2018-12-19T04:43:01.875Z,98610.67
2018-12-19T04:45:09.386Z,98610.08
2018-12-19T04:47:16.257Z,98613.53
2018-12-19T04:49:23.560Z,98616.43
2018-12-19T04:51:30.469Z,98617.68
2018-12-19T04:53:37.630Z,98609.95
2018-12-19T04:55:44.855Z,98602.36
2018-12-19T04:57:51.911Z,98602.26
2018-12-19T04:59:58.900Z,98602.36
2018-12-19T05:02:05.798Z,98591.22
2018-12-19T05:04:12.363Z,98595.67
2018-12-19T05:06:19.669Z,98593.09
2018-12-19T05:08:26.477Z,98588.30
2018-12-19T05:10:33.192Z,98591.45
2018-12-19T05:12:39.716Z,98593.92
2018-12-19T05:14:46.937Z,98587.25
2018-12-19T05:16:54.072Z,98576.80
2018-12-19T05:19:00.846Z,98576.48
2018-12-19T05:21:07.846Z,98575.73
2018-12-19T05:23:14.697Z,98559.80
2018-12-19T05:25:21.677Z,98568.02
2018-12-19T05:27:28.546Z,98565.14
2018-12-19T05:29:35.516Z,98569.13
2018-12-19T05:31:42.456Z,98564.78
2018-12-19T05:33:49.272Z,98565.97
2018-12-19T05:35:56.274Z,98562.94
2018-12-19T05:38:03.066Z,98569.70
2018-12-19T05:40:10.757Z,98557.48
2018-12-19T05:42:17.627Z,98567.55
2018-12-19T05:44:24.484Z,98565.02
2018-12-19T05:46:31.261Z,98560.13
2018-12-19T05:48:38.162Z,98561.66
2018-12-19T05:50:45.120Z,98554.06
2018-12-19T05:52:52.055Z,98544.42
2018-12-19T05:54:59.169Z,98553.67
2018-12-19T05:57:06.306Z,98555.64
2018-12-19T05:59:13.062Z,98551.72
2018-12-19T06:01:19.917Z,98543.60
2018-12-19T06:03:26.747Z,98552.11
2018-12-19T06:05:34.302Z,98546.20
2018-12-19T06:07:40.827Z,98554.16
2018-12-19T06:09:47.979Z,98546.06
2018-12-19T06:11:54.731Z,98559.56
2018-12-19T06:14:01.584Z,98564.67
2018-12-19T06:16:17.443Z,98564.24
2018-12-19T06:18:24.110Z,98554.77
2018-12-19T06:20:31.233Z,98562.70
2018-12-19T06:22:38.097Z,98539.34
2018-12-19T06:24:45.581Z,98569.11
2018-12-19T06:26:52.320Z,98553.47
2018-12-19T06:28:58.982Z,98558.73
2018-12-19T06:31:05.838Z,98563.52
2018-12-19T06:33:12.888Z,98561.49
2018-12-19T06:35:19.941Z,98556.73
2018-12-19T06:37:26.924Z,98559.44
2018-12-19T06:39:33.683Z,98563.77
2018-12-19T06:41:40.561Z,98557.02
2018-12-19T06:43:47.238Z,98563.17
2018-12-19T06:45:53.962Z,98564.14
2018-12-19T06:48:00.892Z,98555.96
2018-12-19T06:50:08.785Z,98555.36
2018-12-19T06:52:15.894Z,98560.39
2018-12-19T06:54:22.735Z,98551.42
2018-12-19T06:56:29.486Z,98537.84
2018-12-19T06:58:36.575Z,98540.27
2018-12-19T07:00:43.456Z,98545.59
2018-12-19T07:02:50.146Z,98544.27
2018-12-19T07:04:56.825Z,98533.34
2018-12-19T07:07:03.644Z,98542.82
2018-12-19T07:09:11.185Z,98538.09
2018-12-19T07:11:18.155Z,98537.42
2018-12-19T07:13:24.861Z,98543.34
2018-12-19T07:15:31.713Z,98538.67
2018-12-19T07:17:38.470Z,98541.61
2018-12-19T07:19:45.198Z,98543.72
2018-12-19T07:21:52.242Z,98534.38
2018-12-19T07:23:59.298Z,98530.48
2018-12-19T07:26:06.146Z,98528.06
2018-12-19T07:28:12.452Z,98530.91
2018-12-19T07:30:19.378Z,98532.91
2018-12-19T07:32:26.369Z,98532.69
2018-12-19T07:34:33.465Z,98537.78
2018-12-19T07:36:40.536Z,98530.30
2018-12-19T07:38:47.403Z,98534.34
2018-12-19T07:40:54.424Z,98527.75
2018-12-19T07:43:01.475Z,98527.25
2018-12-19T08:38:54.673Z,98514.58
2018-12-19T08:41:02.496Z,98514.08
2018-12-19T08:43:09.346Z,98496.59
2018-12-19T08:45:17.240Z,98488.05
2018-12-19T08:47:24.073Z,98484.25
2018-12-19T08:49:31.045Z,98485.00
2018-12-19T08:51:38.413Z,98478.39
2018-12-19T08:53:45.075Z,98467.30
2018-12-19T08:55:51.961Z,98456.00
2018-12-19T08:57:59.037Z,98459.63
2018-12-19T09:00:06.285Z,98466.98
2018-12-19T09:02:12.968Z,98458.28
2018-12-19T09:04:25.673Z,98449.92
2018-12-19T09:06:29.066Z,98447.48
2018-12-19T09:08:35.978Z,98448.38
2018-12-19T09:10:42.817Z,98440.70
2018-12-19T09:12:49.626Z,98443.86
2018-12-19T09:14:58.103Z,98436.73
2018-12-19T09:17:05.349Z,98449.84
2018-12-19T09:19:12.017Z,98440.61
2018-12-19T09:21:18.713Z,98437.02
2018-12-19T09:23:25.640Z,98429.79
2018-12-19T09:25:32.363Z,98428.96
2018-12-19T09:27:39.201Z,98430.37
2018-12-19T09:29:46.486Z,98425.28
2018-12-19T09:31:53.265Z,98419.36
2018-12-19T09:34:00.030Z,98417.86
2018-12-19T09:36:06.842Z,98407.55
2018-12-19T09:38:13.614Z,98398.89
2018-12-19T09:40:21.453Z,98406.02
2018-12-19T09:42:28.257Z,98390.09
2018-12-19T09:44:35.263Z,98394.99
2018-12-19T09:46:42.009Z,98387.39
2018-12-19T09:48:48.898Z,98392.14
2018-12-19T09:50:55.941Z,98390.88
2018-12-19T09:53:02.806Z,98377.59
2018-12-19T09:55:09.929Z,98376.27
2018-12-19T09:57:16.679Z,98374.06
2018-12-19T09:59:23.415Z,98359.33
2018-12-19T10:01:30.278Z,98369.01
2018-12-19T10:03:37.067Z,98365.26
2018-12-19T10:05:44.170Z,98365.23
2018-12-19T10:07:51.028Z,98373.50
2018-12-19T10:09:57.809Z,98371.09
2018-12-19T10:12:04.621Z,98369.93
2018-12-19T10:14:11.420Z,98379.55
2018-12-19T10:16:18.295Z,98377.88
2018-12-19T10:18:25.418Z,98376.22
2018-12-19T10:20:32.078Z,98372.41
2018-12-19T10:22:38.641Z,98370.62
2018-12-19T10:24:50.102Z,98369.11
2018-12-19T10:26:56.841Z,98369.22
2018-12-19T10:29:03.735Z,98356.33
2018-12-19T10:31:10.693Z,98358.07
2018-12-19T10:33:17.726Z,98362.41
2018-12-19T10:35:25.661Z,98353.47
2018-12-19T10:37:32.317Z,98353.09
2018-12-19T10:39:39.201Z,98351.56
2018-12-19T10:41:46.069Z,98363.24
2018-12-19T10:43:52.960Z,98358.22
2018-12-19T10:46:00.032Z,98357.40
2018-12-19T10:48:06.826Z,98357.52
2018-12-19T10:50:13.998Z,98361.52
2018-12-19T10:52:21.090Z,98365.12
2018-12-19T10:54:28.028Z,98355.57
2018-12-19T10:56:35.011Z,98363.08
2018-12-19T10:58:41.957Z,98365.30
2018-12-19T11:00:53.350Z,98374.37
2018-12-19T11:03:01.890Z,98371.45
2018-12-19T11:05:08.670Z,98371.98
2018-12-19T11:07:15.485Z,98372.72
2018-12-19T11:09:22.312Z,98368.70
2018-12-19T11:11:32.285Z,98364.72
2018-12-19T11:13:38.262Z,98361.65
2018-12-19T11:15:45.008Z,98356.14
2018-12-19T11:17:51.937Z,98351.34
2018-12-19T11:19:59.142Z,98354.80
2018-12-19T11:22:07.886Z,98359.65
2018-12-19T11:24:14.558Z,98347.74
2018-12-19T11:26:21.350Z,98350.53
2018-12-19T11:28:28.107Z,98358.66
2018-12-19T11:30:35.066Z,98345.98
2018-12-19T11:32:41.970Z,98335.50
2018-12-19T11:34:48.822Z,98340.13
2018-12-19T11:36:55.646Z,98334.71
2018-12-19T11:39:02.482Z,98328.23
2018-12-19T11:41:15.979Z,98327.69
2018-12-19T11:43:22.597Z,98329.48
2018-12-19T11:45:29.498Z,98324.69
2018-12-19T11:47:36.125Z,98337.41
2018-12-19T11:49:43.030Z,98337.41
2018-12-19T11:51:49.818Z,98336.52
2018-12-19T11:53:56.839Z,98332.55
2018-12-19T11:56:03.831Z,98331.59
2018-12-19T11:58:10.898Z,98333.02
2018-12-19T12:00:17.871Z,98333.48
2018-12-19T12:02:24.558Z,98330.02
2018-12-19T12:04:31.478Z,98317.80
2018-12-19T12:06:38.378Z,98296.28
2018-12-19T12:08:45.442Z,98307.55
2018-12-19T12:10:52.050Z,98307.61
2018-12-19T12:12:59.175Z,98310.78
2018-12-19T12:15:06.454Z,98298.22
2018-12-19T12:17:13.179Z,98294.17
2018-12-19T12:19:19.847Z,98276.77
2018-12-19T12:21:26.817Z,98280.30
2018-12-19T12:23:33.705Z,98272.78
2018-12-19T12:25:40.542Z,98273.56
2018-12-19T12:27:47.433Z,98270.91
2018-12-19T12:29:54.298Z,98273.45
2018-12-19T12:32:01.271Z,98264.03
2018-12-19T12:34:08.857Z,98267.00
2018-12-19T12:36:16.028Z,98273.55
2018-12-19T12:38:22.885Z,98285.98
2018-12-19T12:40:29.698Z,98278.93
2018-12-19T12:42:36.303Z,98283.23
2018-12-19T12:44:43.253Z,98274.73
2018-12-19T12:46:50.174Z,98265.55
2018-12-19T12:48:57.101Z,98273.80
2018-12-19T12:51:04.519Z,98267.44
2018-12-19T12:53:11.402Z,98270.33
2018-12-19T12:55:18.393Z,98268.34
2018-12-19T12:57:25.143Z,98266.31
2018-12-19T12:59:32.386Z,98259.87
2018-12-19T13:01:39.642Z,98261.03
2018-12-19T13:03:46.358Z,98258.79
2018-12-19T13:05:53.231Z,98255.02
2018-12-19T13:08:00.016Z,98253.34
2018-12-19T13:10:07.202Z,98256.59
2018-12-19T13:12:14.005Z,98255.98
2018-12-19T13:14:21.053Z,98255.67
2018-12-19T13:16:28.054Z,98253.48
2018-12-19T13:18:34.750Z,98250.89
2018-12-19T13:20:41.673Z,98248.34
2018-12-19T13:22:48.390Z,98250.77
2018-12-19T13:24:55.153Z,98243.73
2018-12-19T13:27:02.434Z,98248.30
2018-12-19T13:29:09.329Z,98254.59
2018-12-19T13:31:16.345Z,98238.13
2018-12-19T13:33:23.133Z,98235.89
2018-12-19T13:35:29.802Z,98236.28
2018-12-19T13:37:36.366Z,98227.11
2018-12-19T13:39:43.323Z,98228.64
2018-12-19T13:41:50.134Z,98239.42
2018-12-19T13:43:56.987Z,98240.72
2018-12-19T13:46:03.826Z,98237.72
2018-12-19T13:48:10.659Z,98237.03
2018-12-19T13:50:17.761Z,98243.05
2018-12-19T13:52:24.639Z,98241.37
2018-12-19T13:54:31.577Z,98229.81
2018-12-19T13:56:38.588Z,98238.75
2018-12-19T13:58:45.613Z,98229.73
2018-12-19T14:00:52.644Z,98222.20
2018-12-19T14:02:59.481Z,98219.88
2018-12-19T14:05:06.667Z,98223.02
2018-12-19T14:07:13.522Z,98229.98
2018-12-19T14:09:20.085Z,98231.08
2018-12-19T14:11:26.742Z,98235.80
2018-12-19T14:13:33.877Z,98236.33
2018-12-19T14:15:41.243Z,98232.48
2018-12-19T14:17:48.150Z,98236.64
2018-12-19T14:19:55.379Z,98231.14
2018-12-19T14:22:02.384Z,98238.56
2018-12-19T14:24:09.163Z,98238.70
2018-12-19T14:26:16.159Z,98243.05
2018-12-19T14:28:23.153Z,98235.95
2018-12-19T14:30:29.894Z,98229.25
2018-12-19T14:32:36.304Z,98238.30
2018-12-19T14:34:43.426Z,98241.37
2018-12-19T14:36:52.222Z,98253.36
2018-12-19T14:38:59.178Z,98243.13
2018-12-19T14:41:06.113Z,98237.05
2018-12-19T14:43:13.063Z,98235.98
2018-12-19T14:45:20.317Z,98234.63
2018-12-19T14:47:27.192Z,98234.34
2018-12-19T14:49:34.164Z,98242.97
2018-12-19T14:51:40.911Z,98232.78
2018-12-19T14:53:47.575Z,98235.98
2018-12-19T14:55:54.617Z,98236.14
2018-12-19T14:58:01.496Z,98235.50
2018-12-19T15:00:09.275Z,98233.91
2018-12-19T15:02:16.247Z,98225.59
2018-12-19T15:04:23.391Z,98217.80
2018-12-19T15:06:30.246Z,98215.37
2018-12-19T15:08:37.058Z,98206.16
2018-12-19T15:10:44.328Z,98201.03
2018-12-19T15:12:51.038Z,98192.83
2018-12-19T15:14:57.941Z,98191.73
2018-12-19T15:17:04.805Z,98199.23
2018-12-19T15:19:11.514Z,98190.48
2018-12-19T15:21:18.474Z,98189.47
2018-12-19T15:23:25.513Z,98199.06
2018-12-19T15:25:32.143Z,98206.21
2018-12-19T15:27:38.620Z,98209.28
2018-12-19T15:29:45.903Z,98202.97
2018-12-19T15:31:52.606Z,98195.92
2018-12-19T15:33:59.389Z,98190.34
2018-12-19T15:36:06.458Z,98195.73
2018-12-19T15:38:13.358Z,98185.50
2018-12-19T15:40:21.137Z,98194.91
2018-12-19T15:42:32.505Z,98197.02
2018-12-19T15:44:37.385Z,98184.72
2018-12-19T15:46:44.190Z,98177.23
2018-12-19T15:48:51.101Z,98172.30
2018-12-19T15:50:58.057Z,98164.78
2018-12-19T15:53:04.738Z,98161.13
2018-12-19T15:55:11.485Z,98171.63
2018-12-19T15:57:18.186Z,98168.09
2018-12-19T15:59:25.020Z,98161.42
2018-12-19T16:01:32.351Z,98157.67
2018-12-19T16:03:39.267Z,98159.92
2018-12-19T16:05:46.282Z,98154.18
2018-12-19T16:07:53.184Z,98150.64
2018-12-19T16:10:00.022Z,98144.83
2018-12-19T16:12:06.814Z,98147.39
2018-12-19T16:14:13.706Z,98141.55
2018-12-19T16:16:20.962Z,98131.14
2018-12-19T16:18:27.769Z,98129.16
2018-12-19T16:20:34.471Z,98133.83
2018-12-19T16:22:42.028Z,98122.45
2018-12-19T16:24:49.260Z,98121.84
2018-12-19T16:26:56.242Z,98116.81
2018-12-19T16:29:03.017Z,98121.72
2018-12-19T16:31:09.757Z,98126.50
2018-12-19T16:33:16.842Z,98121.13
2018-12-19T16:35:23.989Z,98120.58
2018-12-19T16:37:30.691Z,98119.94
2018-12-19T16:39:37.626Z,98105.73
2018-12-19T16:41:44.825Z,98106.52
2018-12-19T16:43:51.760Z,98096.16
2018-12-19T16:48:25.426Z,98085.90
2018-12-19T16:50:32.197Z,98098.59
2018-12-19T16:52:38.931Z,98093.73
2018-12-19T16:54:45.745Z,98078.84
2018-12-19T16:56:52.639Z,98084.52
2018-12-19T16:58:59.334Z,98072.37
2018-12-19T17:01:06.085Z,98063.20
2018-12-19T17:03:12.956Z,98053.86
2018-12-19T17:05:20.113Z,98043.36
2018-12-19T17:07:27.004Z,98045.40
2018-12-19T17:09:34.105Z,98041.89
2018-12-19T17:11:40.796Z,98034.06
2018-12-19T17:13:47.976Z,98032.91
2018-12-19T17:15:55.058Z,98024.68
2018-12-19T17:18:01.971Z,98016.14
2018-12-19T17:20:09.836Z,98019.80
2018-12-19T17:22:18.224Z,98012.41
2018-12-19T17:24:29.023Z,98012.56
2018-12-19T17:26:36.436Z,98005.53
2018-12-19T17:28:43.551Z,98005.31
2018-12-19T17:30:50.388Z,98008.58
2018-12-19T17:32:57.559Z,97998.81
2018-12-19T17:35:04.522Z,97994.89
2018-12-19T17:37:11.837Z,97992.91
2018-12-19T17:39:19.370Z,97987.92
2018-12-19T17:41:26.289Z,97988.35
2018-12-19T17:43:33.086Z,97979.33
2018-12-19T17:45:40.233Z,97980.63
2018-12-19T17:47:47.065Z,97975.17
2018-12-19T17:49:54.206Z,97970.82
2018-12-19T17:52:01.372Z,97968.03
2018-12-19T17:54:08.409Z,97965.95
2018-12-19T17:56:15.352Z,97966.39
2018-12-19T17:58:22.510Z,97952.95
2018-12-19T18:00:29.786Z,97956.73
2018-12-19T18:02:36.672Z,97951.84
2018-12-19T18:04:43.969Z,97950.14
2018-12-19T18:06:50.866Z,97952.28
2018-12-19T18:08:57.876Z,97936.55
2018-12-19T18:11:04.646Z,97932.74
2018-12-19T18:13:14.142Z,97930.86
2018-12-19T18:15:21.816Z,97924.08
2018-12-19T18:17:28.502Z,97919.09
2018-12-19T18:19:35.191Z,97917.96
2018-12-19T18:21:41.976Z,97916.92
2018-12-19T18:23:49.034Z,97917.20
2018-12-19T18:25:55.901Z,97914.22
2018-12-19T18:28:02.704Z,97907.66
2018-12-19T18:30:10.311Z,97909.45
2018-12-19T18:32:17.167Z,97906.56
2018-12-19T18:34:24.093Z,97900.54
2018-12-19T18:36:30.734Z,97900.64
2018-12-19T18:38:37.651Z,97896.42
2018-12-19T18:40:44.854Z,97899.63
2018-12-19T18:42:51.713Z,97894.05
2018-12-19T18:44:58.441Z,97886.50
2018-12-19T18:47:04.931Z,97885.72
2018-12-19T18:49:15.183Z,97877.76
2018-12-19T18:51:21.946Z,97880.72
2018-12-19T18:53:28.589Z,97876.73
2018-12-19T18:55:37.105Z,97872.30
2018-12-19T18:57:43.877Z,97866.23
2018-12-19T18:59:50.660Z,97856.09
2018-12-19T19:01:57.497Z,97851.89
2018-12-19T19:04:04.183Z,97851.84
2018-12-19T19:06:11.143Z,97845.72
2018-12-19T19:08:17.859Z,97857.84
2018-12-19T19:10:24.492Z,97865.17
2018-12-19T19:12:31.293Z,97852.05
2018-12-19T19:14:37.880Z,97845.53
2018-12-19T19:16:45.061Z,97844.99
2018-12-19T19:18:52.186Z,97841.88
2018-12-19T19:20:58.556Z,97843.80
2018-12-19T19:23:05.157Z,97852.96
2018-12-19T19:25:12.255Z,97842.66
2018-12-19T19:27:26.573Z,97841.32
2018-12-19T19:29:34.262Z,97848.12
2018-12-19T19:31:41.009Z,97840.24
2018-12-19T19:33:47.591Z,97835.61
2018-12-19T19:35:54.579Z,97832.91
2018-12-19T19:38:01.929Z,97837.43
2018-12-19T19:40:10.114Z,97842.66
2018-12-19T19:42:16.693Z,97838.50
2018-12-19T19:44:23.434Z,97832.23
2018-12-19T19:46:30.334Z,97833.23
2018-12-19T19:48:37.075Z,97824.53
2018-12-19T19:50:43.709Z,97823.17
2018-12-19T19:52:50.700Z,97817.88
2018-12-19T19:54:57.513Z,97816.70
2018-12-19T19:57:04.283Z,97768.61
2018-12-19T19:59:11.087Z,97804.39
2018-12-19T20:01:17.747Z,97808.56
2018-12-19T20:03:24.601Z,97802.12
2018-12-19T20:05:31.549Z,97804.05
2018-12-19T20:07:38.199Z,97802.87
2018-12-19T20:09:45.045Z,97807.95
2018-12-19T20:11:51.653Z,97797.95
2018-12-19T20:13:58.881Z,97806.27
2018-12-19T20:16:05.525Z,97763.73
2018-12-19T20:18:13.927Z,97805.32
2018-12-19T20:20:20.852Z,97788.86
2018-12-19T20:22:27.634Z,97796.76
2018-12-19T20:24:34.782Z,97800.55
2018-12-19T20:26:41.680Z,97791.29
2018-12-19T20:28:48.326Z,97801.23
2018-12-19T20:30:54.997Z,97805.04
2018-12-19T20:33:01.737Z,97793.76
2018-12-19T20:35:08.625Z,97803.36
2018-12-19T20:37:15.455Z,97796.27
2018-12-19T20:39:22.389Z,97800.59
2018-12-19T20:41:29.202Z,97794.44
2018-12-19T20:43:39.922Z,97793.76
2018-12-19T20:45:45.113Z,97804.39
2018-12-19T20:47:52.062Z,97802.22
2018-12-19T20:49:59.098Z,97800.58
2018-12-19T20:52:06.210Z,97808.27
2018-12-19T20:54:12.800Z,97808.03
2018-12-19T20:56:19.577Z,97801.85
2018-12-19T20:58:26.204Z,97807.47
2018-12-19T21:00:33.059Z,97813.00
2018-12-19T21:02:39.722Z,97812.59
2018-12-19T21:04:46.515Z,97798.19
2018-12-19T21:06:53.420Z,97801.76
2018-12-19T21:09:00.082Z,97757.48
2018-12-19T21:11:07.057Z,97795.28
2018-12-19T21:13:14.197Z,97799.87
2018-12-19T21:15:20.999Z,97799.33
2018-12-19T21:17:32.303Z,97792.54
2018-12-19T21:19:39.067Z,97791.02
2018-12-19T21:21:45.790Z,97785.61
2018-12-19T21:23:52.763Z,97787.15
2018-12-19T21:25:59.513Z,97782.33
2018-12-19T21:28:06.681Z,97784.18
2018-12-19T21:30:14.215Z,97784.77
2018-12-19T21:32:20.985Z,97777.89
2018-12-19T21:34:27.813Z,97779.22
2018-12-19T21:36:34.788Z,97788.86
2018-12-19T21:38:41.463Z,97787.37
2018-12-19T21:40:47.960Z,97757.81
2018-12-19T21:42:54.856Z,97789.84
2018-12-19T21:45:03.434Z,97786.59
2018-12-19T21:47:10.448Z,97785.96
2018-12-19T21:49:17.217Z,97774.50
2018-12-19T21:51:23.661Z,97779.74
2018-12-19T21:53:30.868Z,97778.66
2018-12-19T21:55:37.687Z,97773.52
2018-12-19T21:57:44.208Z,97780.00
2018-12-19T21:59:50.665Z,97770.03
2018-12-19T22:01:57.348Z,97779.61
2018-12-19T22:04:03.865Z,97771.81
2018-12-19T22:06:10.329Z,97776.71
2018-12-19T22:08:16.796Z,97772.98
2018-12-19T22:10:23.347Z,97774.55
2018-12-19T22:12:30.140Z,97770.66
2018-12-19T22:14:36.777Z,97767.97
2018-12-19T22:16:47.924Z,97771.84
2018-12-19T22:18:54.560Z,97772.03
2018-12-19T22:21:01.330Z,97761.31
2018-12-19T22:23:08.002Z,97763.49
2018-12-19T22:25:14.611Z,97765.62
2018-12-19T22:27:21.164Z,97763.25
2018-12-19T22:29:28.518Z,97758.92
2018-12-19T22:31:35.206Z,97757.92
2018-12-19T22:33:41.906Z,97758.47
2018-12-19T22:38:16.457Z,97764.98
2018-12-19T22:40:23.045Z,97761.45
2018-12-19T22:42:29.843Z,97760.98
2018-12-19T22:44:36.647Z,97758.76
2018-12-19T22:46:43.723Z,97756.08
2018-12-19T22:48:50.539Z,97758.83
2018-12-19T22:50:57.156Z,97755.28
2018-12-19T22:53:04.235Z,97753.84
2018-12-19T22:55:11.044Z,97741.56
2018-12-19T22:57:17.538Z,97744.70
2018-12-19T22:59:24.286Z,97743.69
2018-12-19T23:01:35.669Z,97738.98
2018-12-19T23:03:47.543Z,97745.63
2018-12-19T23:05:54.579Z,97749.03
2018-12-19T23:08:01.027Z,97749.52
2018-12-19T23:10:07.875Z,97765.14
2018-12-19T23:12:14.825Z,97766.30
2018-12-19T23:14:21.433Z,97768.44
2018-12-19T23:16:28.024Z,97776.17
2018-12-19T23:18:38.580Z,97772.81
2018-12-19T23:20:45.312Z,97774.55
2018-12-19T23:22:52.064Z,97773.02
2018-12-19T23:24:59.147Z,97773.14
2018-12-19T23:27:05.738Z,97770.78
2018-12-19T23:29:12.408Z,97771.58
2018-12-19T23:31:19.035Z,97776.30
2018-12-19T23:33:26.103Z,97775.77
2018-12-19T23:35:32.866Z,97779.05
2018-12-19T23:37:39.362Z,97779.55
2018-12-19T23:39:46.079Z,97779.30
2018-12-19T23:41:52.704Z,97776.86
2018-12-19T23:43:59.525Z,97785.08
2018-12-19T23:46:06.309Z,97780.11
2018-12-19T23:48:12.630Z,97777.12
2018-12-19T23:50:19.639Z,97773.92
2018-12-19T23:52:26.304Z,97767.97
2018-12-19T23:54:32.703Z,97762.81
2018-12-19T23:56:39.588Z,97767.70
2018-12-19T23:58:46.414Z,97767.98
